createdAt,value
2018-05-25T00:00:18.805Z,95.30
2018-05-25T00:02:45.981Z,95.00
2018-05-25T00:05:12.425Z,95.00
2018-05-25T00:07:38.895Z,95.00
2018-05-25T00:10:05.316Z,95.00
2018-05-25T00:12:32.777Z,95.00
2018-05-25T00:15:00.001Z,94.50
2018-05-25T00:17:26.507Z,94.50
2018-05-25T00:20:03.383Z,95.00
2018-05-25T00:22:30.621Z,95.40
2018-05-25T00:24:57.072Z,95.40
2018-05-25T00:27:24.233Z,95.20
2018-05-25T00:29:50.670Z,95.20
2018-05-25T00:32:17.873Z,95.00
2018-05-25T00:34:44.358Z,95.00
2018-05-25T00:37:11.506Z,95.00
2018-05-25T00:39:37.987Z,95.00
2018-05-25T00:42:04.408Z,95.10
2018-05-25T00:44:30.893Z,95.20
2018-05-25T00:46:57.318Z,95.30
2018-05-25T00:49:23.789Z,95.50
2018-05-25T00:51:50.968Z,95.60
2018-05-25T00:54:17.405Z,95.60
2018-05-25T00:56:43.830Z,95.60
2018-05-25T00:59:10.295Z,95.50
2018-05-25T01:01:36.694Z,95.40
2018-05-25T01:04:03.159Z,95.20
2018-05-25T01:06:29.617Z,94.90
2018-05-25T01:08:56.090Z,94.90
2018-05-25T01:11:22.604Z,94.90
2018-05-25T01:13:49.054Z,95.90
2018-05-25T01:16:16.520Z,95.70
2018-05-25T01:18:43.045Z,95.50
2018-05-25T01:21:09.546Z,95.40
2018-05-25T01:23:45.331Z,95.30
2018-05-25T01:26:11.797Z,95.20
2018-05-25T01:28:39.068Z,94.70
2018-05-25T01:31:05.585Z,94.70
2018-05-25T01:33:32.854Z,94.80
2018-05-25T01:35:59.372Z,94.40
2018-05-25T01:38:26.599Z,95.40
2018-05-25T01:40:53.823Z,95.70
2018-05-25T01:43:21.302Z,95.70
2018-05-25T01:45:48.534Z,95.60
2018-05-25T01:48:14.996Z,95.60
2018-05-25T01:50:41.460Z,95.90
2018-05-25T01:53:08.686Z,96.20
2018-05-25T01:55:36.180Z,96.20
2018-05-25T01:58:29.688Z,96.80
2018-05-25T02:00:56.233Z,96.70
2018-05-25T02:03:22.797Z,96.70
2018-05-25T02:05:50.101Z,96.70
2018-05-25T02:08:16.630Z,96.70
2018-05-25T02:10:43.154Z,96.70
2018-05-25T02:13:09.676Z,96.60
2018-05-25T02:15:36.223Z,96.70
2018-05-25T02:18:02.746Z,96.70
2018-05-25T02:20:29.288Z,96.40
2018-05-25T02:22:55.853Z,96.10
2018-05-25T02:25:22.393Z,95.80
2018-05-25T02:27:48.930Z,96.20
2018-05-25T02:30:15.523Z,96.40
2018-05-25T02:32:42.046Z,96.50
2018-05-25T02:35:08.623Z,96.30
2018-05-25T02:37:35.146Z,96.30
2018-05-25T02:40:01.684Z,96.50
2018-05-25T02:42:29.085Z,96.50
2018-05-25T02:44:55.604Z,96.50
2018-05-25T02:47:22.124Z,96.40
2018-05-25T02:49:48.700Z,96.40
2018-05-25T02:52:15.250Z,96.30
2018-05-25T02:54:41.812Z,96.10
2018-05-25T02:57:08.364Z,95.90
2018-05-25T02:59:42.601Z,95.40
2018-05-25T03:02:09.148Z,95.20
2018-05-25T03:04:35.612Z,95.40
2018-05-25T03:07:02.838Z,95.80
2018-05-25T03:09:42.826Z,95.80
2018-05-25T03:12:09.355Z,96.30
2018-05-25T03:14:35.879Z,96.40
2018-05-25T03:17:02.489Z,96.30
2018-05-25T03:19:30.337Z,96.20
2018-05-25T03:21:56.896Z,96.20
2018-05-25T03:24:24.146Z,96.20
2018-05-25T03:26:50.676Z,96.20
2018-05-25T03:29:17.938Z,95.60
2018-05-25T03:31:44.478Z,95.60
2018-05-25T03:34:11.004Z,95.80
2018-05-25T03:36:38.270Z,96.00
2018-05-25T03:39:05.567Z,96.00
2018-05-25T03:41:32.059Z,95.90
2018-05-25T03:43:58.634Z,95.90
2018-05-25T03:46:25.170Z,96.40
2018-05-25T03:48:51.745Z,96.40
2018-05-25T03:51:18.302Z,96.10
2018-05-25T03:53:44.854Z,96.00
2018-05-25T03:56:11.391Z,96.10
2018-05-25T03:58:50.049Z,96.20
2018-05-25T04:01:29.371Z,96.40
2018-05-25T04:03:55.961Z,96.40
2018-05-25T04:06:22.476Z,96.20
2018-05-25T04:08:49.051Z,96.10
2018-05-25T04:11:15.650Z,96.10
2018-05-25T04:13:42.103Z,96.20
2018-05-25T04:16:08.578Z,96.30
2018-05-25T04:18:35.781Z,96.20
2018-05-25T04:21:02.229Z,96.20
2018-05-25T04:23:28.683Z,96.40
2018-05-25T04:25:55.836Z,96.40
2018-05-25T04:28:23.040Z,96.40
2018-05-25T04:30:49.456Z,96.40
2018-05-25T04:33:15.913Z,96.40
2018-05-25T04:35:42.351Z,96.40
2018-05-25T04:38:08.777Z,96.40
2018-05-25T04:40:35.203Z,96.50
2018-05-25T04:43:01.747Z,96.50
2018-05-25T04:45:28.215Z,96.80
2018-05-25T04:47:54.645Z,96.90
2018-05-25T04:50:21.859Z,97.10
2018-05-25T04:52:48.292Z,97.10
2018-05-25T04:55:15.534Z,96.60
2018-05-25T04:57:42.009Z,96.60
2018-05-25T05:00:09.221Z,96.50
2018-05-25T05:02:35.622Z,96.50
2018-05-25T05:05:02.916Z,96.50
2018-05-25T05:09:55.559Z,96.30
2018-05-25T05:12:22.759Z,96.50
2018-05-25T05:14:49.255Z,96.50
2018-05-25T05:17:15.748Z,96.40
2018-05-25T05:19:44.272Z,96.20
2018-05-25T05:22:15.096Z,96.00
2018-05-25T05:24:41.603Z,96.00
2018-05-25T05:27:08.046Z,96.20
2018-05-25T05:29:35.444Z,96.20
2018-05-25T05:32:01.887Z,96.10
2018-05-25T05:34:28.313Z,96.00
2018-05-25T05:36:54.731Z,96.00
2018-05-25T05:39:21.168Z,96.30
2018-05-25T05:41:48.336Z,96.10
2018-05-25T05:44:14.760Z,96.10
2018-05-25T05:46:41.154Z,96.10
2018-05-25T05:49:07.577Z,96.30
2018-05-25T05:51:33.967Z,96.30
2018-05-25T05:54:00.396Z,96.50
2018-05-25T05:56:26.819Z,96.50
2018-05-25T05:58:53.949Z,96.00
2018-05-25T06:01:22.127Z,95.60
2018-05-25T06:03:49.330Z,95.70
2018-05-25T06:06:15.768Z,95.60
2018-05-25T06:08:42.202Z,95.40
2018-05-25T06:11:08.615Z,95.60
2018-05-25T06:16:27.726Z,95.20
2018-05-25T06:19:29.021Z,95.10
2018-05-25T06:21:55.527Z,94.60
2018-05-25T06:24:22.690Z,94.60
2018-05-25T06:26:49.820Z,94.80
2018-05-25T06:29:16.236Z,94.80
2018-05-25T06:31:42.633Z,95.90
2018-05-25T06:34:10.047Z,94.80
2018-05-25T06:40:19.572Z,91.00
2018-05-25T06:42:46.146Z,91.00
2018-05-25T06:45:12.765Z,91.60
2018-05-25T06:47:39.285Z,92.40
2018-05-25T06:50:06.575Z,92.30
2018-05-25T06:52:33.091Z,92.30
2018-05-25T06:55:00.595Z,91.80
2018-05-25T06:57:27.087Z,92.30
2018-05-25T06:59:53.596Z,92.40
2018-05-25T07:02:20.848Z,91.50
2018-05-25T07:04:48.089Z,90.30
2018-05-25T07:07:15.345Z,89.80
2018-05-25T07:09:42.629Z,89.80
2018-05-25T07:12:09.142Z,89.70
2018-05-25T07:14:36.452Z,89.10
2018-05-25T07:17:02.995Z,89.10
2018-05-25T07:19:29.569Z,90.30
2018-05-25T07:21:56.105Z,90.90
2018-05-25T07:24:23.358Z,90.50
2018-05-25T07:26:49.925Z,90.50
2018-05-25T07:29:17.173Z,89.70
2018-05-25T07:31:43.689Z,89.80
2018-05-25T07:34:10.310Z,87.40
2018-05-25T07:36:36.856Z,85.70
2018-05-25T07:39:05.029Z,83.70
2018-05-25T07:41:31.423Z,83.70
2018-05-25T07:43:57.815Z,84.30
2018-05-25T07:46:24.221Z,85.10
2018-05-25T07:48:51.392Z,81.40
2018-05-25T07:51:18.855Z,81.30
2018-05-25T07:53:45.300Z,79.50
2018-05-25T07:56:11.789Z,79.40
2018-05-25T07:58:38.212Z,81.60
2018-05-25T08:01:04.635Z,82.50
2018-05-25T08:03:32.627Z,76.60
2018-05-25T08:05:59.057Z,77.20
2018-05-25T08:08:26.281Z,76.60
2018-05-25T08:10:52.677Z,76.60
2018-05-25T08:13:19.137Z,75.90
2018-05-25T08:15:45.577Z,77.70
2018-05-25T08:18:12.018Z,75.90
2018-05-25T08:20:38.437Z,78.00
2018-05-25T08:23:04.897Z,77.60
2018-05-25T08:25:31.833Z,78.00
2018-05-25T08:28:06.202Z,78.70
2018-05-25T08:30:32.694Z,77.00
2018-05-25T08:32:59.397Z,78.70
2018-05-25T08:35:25.975Z,75.50
2018-05-25T08:37:53.230Z,75.80
2018-05-25T08:40:19.673Z,75.70
2018-05-25T08:42:46.799Z,74.30
2018-05-25T08:45:14.969Z,71.90
2018-05-25T08:47:41.368Z,71.80
2018-05-25T08:50:08.620Z,71.40
2018-05-25T08:52:35.035Z,71.40
2018-05-25T08:55:01.488Z,70.20
2018-05-25T08:57:27.945Z,73.00
2018-05-25T08:59:55.160Z,71.80
2018-05-25T09:02:21.587Z,68.60
2018-05-25T09:04:48.063Z,65.60
2018-05-25T09:07:14.472Z,64.50
2018-05-25T09:09:54.777Z,67.10
2018-05-25T09:12:21.338Z,66.00
2018-05-25T09:14:55.613Z,65.80
2018-05-25T09:17:22.046Z,62.20
2018-05-25T09:19:48.452Z,64.20
2018-05-25T09:22:14.865Z,65.40
2018-05-25T09:24:41.325Z,67.90
2018-05-25T09:27:07.767Z,66.80
2018-05-25T09:29:34.199Z,63.50
2018-05-25T09:32:00.649Z,66.60
2018-05-25T09:34:27.401Z,61.40
2018-05-25T09:36:53.923Z,60.70
2018-05-25T09:39:20.372Z,59.20
2018-05-25T09:41:47.573Z,64.60
2018-05-25T09:44:14.043Z,64.60
2018-05-25T09:46:40.640Z,62.30
2018-05-25T09:49:07.074Z,61.40
2018-05-25T09:51:33.712Z,61.00
2018-05-25T09:54:00.093Z,59.70
2018-05-25T09:56:27.423Z,61.00
2018-05-25T09:58:53.830Z,61.00
2018-05-25T10:01:22.308Z,59.10
2018-05-25T10:04:03.566Z,59.20
2018-05-25T10:06:30.213Z,59.30
2018-05-25T10:08:57.447Z,59.50
2018-05-25T10:11:24.924Z,59.50
2018-05-25T10:13:51.322Z,62.00
2018-05-25T10:16:17.732Z,58.10
2018-05-25T10:18:44.146Z,58.80
2018-05-25T10:21:11.423Z,56.70
2018-05-25T10:23:37.828Z,56.50
2018-05-25T10:26:05.140Z,55.90
2018-05-25T10:28:31.605Z,55.80
2018-05-25T10:30:58.799Z,58.00
2018-05-25T10:33:26.619Z,57.80
2018-05-25T11:20:51.347Z,54.30
2018-05-25T11:23:18.036Z,54.50
2018-05-25T11:25:45.446Z,59.10
2018-05-25T11:28:12.051Z,59.00
2018-05-25T11:30:38.621Z,60.10
2018-05-25T11:33:05.204Z,57.90
2018-05-25T11:35:31.712Z,58.80
2018-05-25T11:37:58.246Z,59.00
2018-05-25T11:40:24.783Z,55.90
2018-05-25T11:42:51.330Z,56.50
2018-05-25T11:45:17.854Z,53.60
2018-05-25T11:47:45.206Z,56.20
2018-05-25T11:50:11.726Z,56.20
2018-05-25T11:52:38.279Z,57.20
2018-05-25T11:55:04.811Z,55.50
2018-05-25T11:57:31.338Z,54.20
2018-05-25T11:59:57.880Z,53.80
2018-05-25T12:02:24.394Z,52.80
2018-05-25T12:04:50.877Z,50.40
2018-05-25T12:07:18.213Z,52.80
2018-05-25T12:09:45.496Z,54.30
2018-05-25T12:12:12.800Z,56.80
2018-05-25T12:14:39.336Z,56.80
2018-05-25T12:17:05.839Z,56.50
2018-05-25T12:19:32.375Z,56.40
2018-05-25T12:24:24.287Z,56.30
2018-05-25T12:26:51.466Z,61.40
2018-05-25T12:29:17.879Z,61.40
2018-05-25T12:35:14.714Z,66.20
2018-05-25T12:37:41.134Z,67.00
2018-05-25T12:40:07.565Z,66.80
2018-05-25T12:42:33.966Z,67.90
2018-05-25T12:45:11.415Z,65.00
2018-05-25T12:47:38.581Z,65.00
2018-05-25T12:50:05.856Z,67.10
2018-05-25T12:52:32.355Z,67.10
2018-05-25T12:54:58.893Z,66.70
2018-05-25T12:57:25.294Z,65.40
2018-05-25T12:59:53.773Z,64.00
2018-05-25T13:02:20.263Z,61.80
2018-05-25T13:04:46.673Z,61.10
2018-05-25T13:07:13.072Z,60.80
2018-05-25T13:09:39.701Z,58.30
2018-05-25T13:12:06.108Z,58.20
2018-05-25T13:14:32.953Z,58.90
2018-05-25T13:16:59.553Z,59.80
2018-05-25T13:19:26.897Z,59.30
2018-05-25T13:21:53.305Z,59.20
2018-05-25T13:24:19.932Z,56.80
2018-05-25T13:26:46.329Z,55.80
2018-05-25T13:29:12.791Z,54.60
2018-05-25T13:31:39.215Z,56.20
2018-05-25T13:34:05.761Z,57.60
2018-05-25T13:36:32.330Z,57.40
2018-05-25T13:38:58.759Z,58.00
2018-05-25T13:41:25.351Z,59.70
2018-05-25T13:43:51.819Z,62.60
2018-05-25T13:46:19.288Z,63.30
2018-05-25T13:48:46.488Z,63.50
2018-05-25T13:51:12.966Z,63.40
2018-05-25T13:58:32.155Z,65.20
2018-05-25T14:00:58.634Z,63.10
2018-05-25T14:03:25.893Z,60.20
2018-05-25T14:06:13.395Z,60.20
2018-05-25T14:08:39.982Z,62.40
2018-05-25T14:11:06.512Z,66.00
2018-05-25T14:13:33.788Z,61.70
2018-05-25T14:16:00.411Z,61.60
2018-05-25T14:18:26.965Z,61.20
2018-05-25T14:20:54.481Z,61.30
2018-05-25T14:23:21.760Z,61.40
2018-05-25T14:26:02.362Z,61.40
2018-05-25T14:28:28.956Z,59.40
2018-05-25T14:30:55.656Z,59.60
2018-05-25T14:33:22.196Z,57.60
2018-05-25T14:35:50.498Z,59.50
2018-05-25T14:38:17.151Z,59.50
2018-05-25T14:40:45.745Z,60.40
2018-05-25T14:43:13.066Z,62.40
2018-05-25T14:45:47.350Z,62.40
2018-05-25T14:48:14.039Z,62.20
2018-05-25T14:50:40.683Z,63.90
2018-05-25T14:53:07.258Z,64.20
2018-05-25T14:55:33.897Z,64.00
2018-05-25T14:58:00.416Z,64.40
2018-05-25T15:00:27.045Z,62.20
2018-05-25T15:02:53.631Z,62.40
2018-05-25T15:05:20.210Z,63.90
2018-05-25T15:07:46.756Z,64.70
2018-05-25T15:10:13.237Z,64.10
2018-05-25T15:12:39.701Z,62.70
2018-05-25T15:15:06.136Z,64.70
2018-05-25T15:17:33.331Z,64.70
2018-05-25T15:19:59.825Z,64.50
2018-05-25T15:22:26.404Z,65.70
2018-05-25T15:24:52.850Z,64.90
2018-05-25T15:27:19.323Z,66.30
2018-05-25T15:29:46.497Z,66.90
2018-05-25T15:32:12.950Z,66.80
2018-05-25T15:34:39.397Z,66.80
2018-05-25T15:37:37.045Z,65.90
2018-05-25T15:40:03.805Z,66.00
2018-05-25T15:42:30.408Z,66.20
2018-05-25T15:44:57.018Z,66.90
2018-05-25T15:47:23.559Z,67.40
2018-05-25T15:49:50.127Z,66.10
2018-05-25T15:52:16.672Z,66.80
2018-05-25T15:54:43.352Z,67.50
2018-05-25T15:57:09.888Z,67.40
2018-05-25T15:59:36.553Z,66.00
2018-05-25T16:02:04.623Z,66.70
2018-05-25T16:04:31.285Z,66.10
2018-05-25T16:06:57.848Z,66.30
2018-05-25T16:09:24.416Z,66.10
2018-05-25T16:11:52.036Z,65.90
2018-05-25T16:14:19.089Z,65.80
2018-05-25T16:16:45.906Z,67.60
2018-05-25T16:19:13.656Z,69.00
2018-05-25T16:21:40.310Z,69.00
2018-05-25T16:24:06.917Z,69.40
2018-05-25T16:26:33.452Z,68.50
2018-05-25T16:29:00.835Z,72.20
2018-05-25T16:31:27.411Z,72.20
2018-05-25T16:33:53.974Z,72.10
2018-05-25T16:36:21.269Z,70.80
2018-05-25T16:38:47.825Z,70.80
2018-05-25T16:41:25.784Z,72.20
2018-05-25T16:43:56.218Z,71.30
2018-05-25T16:46:22.615Z,71.90
2018-05-25T16:48:50.053Z,72.10
2018-05-25T16:51:16.528Z,72.00
2018-05-25T16:53:47.367Z,72.50
2018-05-25T16:56:13.828Z,72.40
2018-05-25T16:58:41.068Z,72.60
2018-05-25T17:01:08.355Z,72.40
2018-05-25T17:03:36.606Z,72.50
2018-05-25T17:06:03.284Z,73.50
2018-05-25T17:08:29.767Z,74.20
2018-05-25T17:10:56.207Z,74.80
2018-05-25T17:13:22.633Z,73.80
2018-05-25T17:15:49.817Z,73.60
2018-05-25T17:18:16.254Z,73.40
2018-05-25T17:20:42.690Z,72.80
2018-05-25T17:23:09.147Z,74.50
2018-05-25T17:25:35.581Z,76.30
2018-05-25T17:28:02.055Z,77.70
2018-05-25T17:30:29.249Z,79.00
2018-05-25T17:32:55.676Z,78.80
2018-05-25T17:35:22.104Z,79.10
2018-05-25T17:37:48.565Z,79.90
2018-05-25T17:40:14.981Z,80.40
2018-05-25T17:42:41.386Z,80.80
2018-05-25T17:45:08.574Z,81.80
2018-05-25T17:47:34.991Z,81.80
2018-05-25T17:50:01.452Z,81.40
2018-05-25T17:52:27.885Z,81.50
2018-05-25T17:54:54.354Z,82.10
2018-05-25T17:57:21.538Z,83.60
2018-05-25T17:59:47.963Z,83.60
2018-05-25T18:02:14.377Z,84.80
2018-05-25T18:04:42.530Z,85.10
2018-05-25T18:07:21.420Z,85.00
2018-05-25T18:10:23.177Z,85.70
2018-05-25T18:12:49.770Z,86.00
2018-05-25T18:15:16.333Z,86.80
2018-05-25T18:17:42.862Z,86.60
2018-05-25T18:20:09.370Z,86.50
2018-05-25T18:22:35.977Z,86.50
2018-05-25T18:25:03.297Z,87.10
2018-05-25T18:27:29.808Z,87.10
2018-05-25T18:29:56.388Z,87.70
2018-05-25T18:32:23.654Z,88.50
2018-05-25T18:34:50.191Z,88.50
2018-05-25T18:37:17.735Z,88.80
2018-05-25T18:39:45.042Z,89.10
2018-05-25T18:42:11.578Z,89.10
2018-05-25T18:44:38.101Z,89.60
2018-05-25T18:47:04.727Z,89.80
2018-05-25T18:49:31.254Z,90.00
2018-05-25T18:51:57.792Z,90.30
2018-05-25T18:54:33.414Z,90.50
2018-05-25T18:56:59.948Z,90.80
2018-05-25T18:59:27.201Z,91.30
2018-05-25T19:01:53.782Z,91.30
2018-05-25T19:04:20.328Z,91.40
2018-05-25T19:06:46.985Z,91.80
2018-05-25T19:09:13.530Z,92.10
2018-05-25T19:14:15.736Z,92.10
2018-05-25T19:16:42.982Z,92.30
2018-05-25T19:19:09.457Z,92.30
2018-05-25T19:21:35.876Z,92.40
2018-05-25T19:24:03.080Z,92.70
2018-05-25T19:26:29.537Z,92.70
2018-05-25T19:28:55.944Z,92.60
2018-05-25T19:31:22.343Z,92.60
2018-05-25T19:33:48.797Z,92.70
2018-05-25T19:36:15.194Z,92.70
2018-05-25T19:38:42.467Z,92.60
2018-05-25T19:41:08.865Z,92.60
2018-05-25T19:43:36.063Z,92.90
2018-05-25T19:46:02.554Z,92.90
2018-05-25T19:48:28.984Z,93.00
2018-05-25T19:50:56.167Z,92.80
2018-05-25T19:53:22.571Z,92.80
2018-05-25T19:55:49.000Z,92.90
2018-05-25T19:58:16.215Z,93.00
2018-05-25T20:00:43.623Z,93.00
2018-05-25T20:03:10.044Z,93.00
2018-05-25T20:05:36.451Z,93.00
2018-05-25T20:08:03.630Z,93.00
2018-05-25T20:10:31.059Z,93.00
2018-05-25T20:12:58.202Z,93.10
2018-05-25T20:15:54.903Z,93.10
2018-05-25T20:18:29.005Z,93.10
2018-05-25T20:20:56.252Z,93.20
2018-05-25T20:23:22.752Z,93.20
2018-05-25T20:25:49.218Z,93.30
2018-05-25T20:28:15.659Z,93.10
2018-05-25T20:30:42.832Z,93.30
2018-05-25T20:33:09.277Z,93.20
2018-05-25T20:35:35.745Z,93.60
2018-05-25T20:38:03.219Z,93.70
2018-05-25T20:40:30.392Z,93.90
2018-05-25T20:42:56.855Z,93.90
2018-05-25T20:45:23.278Z,93.70
2018-05-25T20:47:49.755Z,93.70
2018-05-25T20:50:16.192Z,93.70
2018-05-25T20:52:42.614Z,93.70
2018-05-25T20:55:09.821Z,93.80
2018-05-25T20:57:36.309Z,93.80
2018-05-25T21:00:03.547Z,93.70
2018-05-25T21:02:29.983Z,93.70
2018-05-25T21:04:56.408Z,93.70
2018-05-25T21:07:31.211Z,93.70
2018-05-25T21:09:58.388Z,94.10
2018-05-25T21:12:24.867Z,94.10
2018-05-25T21:14:51.282Z,94.10
2018-05-25T21:17:17.705Z,94.10
2018-05-25T21:19:44.159Z,94.20
2018-05-25T21:22:10.583Z,94.20
2018-05-25T21:24:37.055Z,94.20
2018-05-25T21:27:03.489Z,94.10
2018-05-25T21:29:29.933Z,94.20
2018-05-25T21:31:56.315Z,94.20
2018-05-25T21:34:22.849Z,94.10
2018-05-25T21:36:49.264Z,94.20
2018-05-25T21:39:16.488Z,94.20
2018-05-25T21:41:43.684Z,94.30
2018-05-25T21:44:10.131Z,94.20
2018-05-25T21:46:36.544Z,94.20
2018-05-25T21:49:03.008Z,94.20
2018-05-25T21:51:29.425Z,94.20
2018-05-25T21:53:55.869Z,94.30
2018-05-25T21:56:22.356Z,94.30
2018-05-25T21:58:49.539Z,94.30
2018-05-25T22:01:15.970Z,94.30
2018-05-25T22:03:42.418Z,94.30
2018-05-25T22:06:08.832Z,94.40
2018-05-25T22:08:35.244Z,94.50
2018-05-25T22:11:01.708Z,94.40
2018-05-25T22:13:28.181Z,94.30
2018-05-25T22:15:54.631Z,94.30
2018-05-25T22:18:21.034Z,94.30
2018-05-25T22:20:47.461Z,94.20
2018-05-25T22:23:22.564Z,94.20
2018-05-25T22:25:49.083Z,94.20
2018-05-25T22:28:15.507Z,94.20
2018-05-25T22:30:41.951Z,94.20
2018-05-25T22:33:08.328Z,94.30
2018-05-25T22:35:35.502Z,94.40
2018-05-25T22:38:01.946Z,94.40
2018-05-25T22:40:28.340Z,94.40
2018-05-25T22:43:07.664Z,94.50
2018-05-25T22:45:46.219Z,94.40
2018-05-25T22:48:24.658Z,94.40
2018-05-25T22:51:03.124Z,94.50
2018-05-25T22:53:36.068Z,94.50
2018-05-25T22:56:02.501Z,94.50
2018-05-25T22:58:29.656Z,94.50
2018-05-25T23:00:57.090Z,94.50
2018-05-25T23:03:23.550Z,94.50
2018-05-25T23:05:49.973Z,94.40
2018-05-25T23:08:16.380Z,94.40
2018-05-25T23:10:42.814Z,94.30
2018-05-25T23:13:09.206Z,94.30
2018-05-25T23:15:36.396Z,94.40
2018-05-25T23:18:02.853Z,94.40
2018-05-25T23:20:29.289Z,94.40
2018-05-25T23:22:55.684Z,94.50
2018-05-25T23:25:22.120Z,94.50
2018-05-25T23:27:48.753Z,94.60
2018-05-25T23:30:15.378Z,94.50
2018-05-25T23:32:41.841Z,94.40
2018-05-25T23:35:08.297Z,94.50
2018-05-25T23:37:36.444Z,94.30
2018-05-25T23:40:02.962Z,94.30
2018-05-25T23:42:29.440Z,94.40
2018-05-25T23:44:55.946Z,94.40
2018-05-25T23:47:22.437Z,94.40
2018-05-25T23:49:48.971Z,94.40
2018-05-25T23:52:15.432Z,94.40
2018-05-25T23:54:41.911Z,94.40
2018-05-25T23:57:09.111Z,94.30
2018-05-25T23:59:35.566Z,94.30
